• Join FlightAware (Why Join?)
  • Login
  • US Flag 
06:53AM EST


 

Airport Tracker/Info


-or-


 

Live Flight TrackerFlight Track Log ✈ ACA831 ✈ 08-May-2013 ✈ CYUL - CYYZ

Flight Track Log - Related Links

Times and Time Zones

All times are in EDT time to prevent confusion due to time zone crossing. See the ACA831 flight status page for this flight to view local times or setup timezone preferences in your user account.

Time Position Orientation Groundspeed Altitude Reporting Facility
EDT Latitude Longitude Course Direction KTS MPH feet Rate Location/Type
04:22PM 45.4333 -73.7500 254° West 150 173 1,700  Level Montreal Center
04:23PM 45.4000 -73.8000 226° Southwest 220 253 4,100 2,550 Climbing Montreal Center
04:24PM 45.3833 -73.9000 257° West 270 311 6,800 2,374 Climbing Montreal Center
04:26PM 45.4167 -74.4083 270° West  Level FlightAware Approximate
04:27PM 45.3833 -74.5795 270° West  Level FlightAware Approximate
04:28PM 45.3568 -74.7493 254° West  Level FlightAware Approximate
04:30PM 45.3810 -74.6440 257° West 382 440 20,400  Level FlightAware
04:31PM 45.3640 -74.7440 256° West 396 456 22,200 2,612 Climbing FlightAware
04:32PM 45.3450 -74.8540 256° West 407 468 24,100 2,471 Climbing FlightAware
04:32PM 45.3270 -74.9610 257° West 418 481 25,700 2,541 Climbing FlightAware
04:33PM 45.3050 -75.0860 256° West 423 487 27,700 2,400 Climbing FlightAware
04:34PM 45.2870 -75.1920 256° West 430 495 29,100 2,475 Climbing FlightAware
04:34PM 45.2680 -75.3020 256° West 423 487 31,000 2,612 Climbing FlightAware
04:35PM 45.2470 -75.4180 256° West 418 481 32,800 2,118 Climbing FlightAware
04:36PM 45.2280 -75.5250 256° West 418 481 34,000 847 Climbing FlightAware
04:37PM 45.2070 -75.6430 256° West 419 482 34,000  Level FlightAware
04:37PM 45.1880 -75.7530 256° West 418 481 34,000  Level FlightAware
04:38PM 45.1680 -75.8600 255° West 419 482 34,000  Level FlightAware
04:39PM 45.1470 -75.9770 256° West 421 484 34,000  Level FlightAware
04:39PM 45.1310 -76.0660 256° West 421 484 34,000  Level FlightAware
04:40PM 45.1080 -76.1870 255° West 423 487 34,000  Level FlightAware
04:41PM 45.0830 -76.2760 248° West 422 486 34,000  Level FlightAware
04:41PM 45.0400 -76.3870 241° Southwest 422 486 34,000  Level FlightAware
04:42PM 44.9970 -76.4940 240° Southwest 423 487 34,000  Level FlightAware
04:43PM 44.9600 -76.5870 241° Southwest 424 488 34,000  Level FlightAware
04:44PM 44.9150 -76.6980 240° Southwest 424 488 34,000  Level FlightAware
04:44PM 44.8760 -76.7970 241° Southwest 424 488 34,000  Level FlightAware
04:45PM 44.8370 -76.8950 241° Southwest 426 490 34,000  Level FlightAware
04:46PM 44.7930 -77.0040 240° Southwest 432 497 34,000  Level FlightAware
04:46PM 44.7530 -77.1010 240° Southwest 445 512 34,000  Level FlightAware
04:47PM 44.7080 -77.2130 241° Southwest 449 517 34,000  Level FlightAware
04:48PM 44.6650 -77.3180 240° Southwest 449 517 34,000  Level FlightAware
04:48PM 44.6290 -77.4080 241° Southwest 445 512 34,000 -565 Level FlightAware
04:49PM 44.5790 -77.5280 240° Southwest 461 531 33,200 -1,200 Descending FlightAware
04:50PM 44.5360 -77.6330 240° Southwest 461 531 32,300 -1,129 Descending FlightAware
04:51PM 44.4910 -77.7420 240° Southwest 452 520 31,600 -1,129 Descending FlightAware
04:51PM 44.4480 -77.8470 240° Southwest 453 521 30,700 -1,425 Descending FlightAware
04:52PM 44.4070 -77.9450 240° Southwest 444 511 29,700 -1,694 Descending FlightAware
04:53PM 44.3590 -78.0590 240° Southwest 432 497 28,300 -1,553 Descending FlightAware
04:53PM 44.3200 -78.1510 239° Southwest 427 491 27,500 -1,125 Descending FlightAware
04:54PM 44.2780 -78.2510 240° Southwest 427 491 26,800 -988 Descending FlightAware
04:55PM 44.2330 -78.3570 239° Southwest 421 484 26,100 -1,200 Descending FlightAware
04:55PM 44.1960 -78.4440 239° Southwest 420 483 25,100 -1,835 Descending FlightAware
04:56PM 44.1490 -78.5550 239° Southwest 411 473 23,500 -2,259 Descending FlightAware
04:57PM 44.1120 -78.6420 239° Southwest 406 467 21,900 -2,400 Descending FlightAware
04:57PM 44.0720 -78.7340 239° Southwest 403 464 20,300 -2,329 Descending FlightAware
04:58PM 44.0300 -78.8330 239° Southwest 399 459 18,600 -2,400 Descending FlightAware
04:59PM 43.9900 -78.9190 237° Southwest 395 455 16,900 -2,025 Descending FlightAware
05:00PM 43.9510 -79.0030 237° Southwest 376 433 15,900 -1,341 Descending FlightAware
05:00PM 43.9120 -79.0890 238° Southwest 342 394 15,000 -1,412 Descending FlightAware
05:01PM 43.8790 -79.1600 237° Southwest 326 375 13,900 -1,694 Descending FlightAware
05:02PM 43.8430 -79.2390 238° Southwest 321 369 12,600 -1,694 Descending FlightAware
05:02PM 43.8110 -79.3070 237° Southwest 318 366 11,500 -1,624 Descending FlightAware
05:03PM 43.7690 -79.3770 230° Southwest 306 352 10,300 -1,543 Descending FlightAware
05:04PM 43.7420 -79.4040 216° Southwest 298 343 9,700 -1,500 Descending FlightAware
05:04PM 43.7250 -79.4200 214° Southwest 298 343 9,300 -1,467 Descending FlightAware
05:04PM 43.6910 -79.4540 216° Southwest 295 339 8,600 -1,418 Descending FlightAware
05:05PM 43.6630 -79.4810 215° Southwest 293 337 8,000 -1,200 Descending FlightAware
05:05PM 43.6300 -79.5120 214° Southwest 287 330 7,500 -982 Descending FlightAware
05:06PM 43.6050 -79.5370 216° Southwest 266 306 7,100 -1,091 Descending FlightAware
05:06PM 43.5780 -79.5710 222° Southwest 256 295 6,500 -1,309 Descending FlightAware
05:07PM 43.5570 -79.6010 226° Southwest 254 292 5,900 -1,309 Descending FlightAware
05:07PM 43.5340 -79.6350 227° Southwest 249 287 5,300 -1,200 Descending FlightAware
05:08PM 43.5100 -79.6700 227° Southwest 244 281 4,700 -1,050 Descending FlightAware
05:08PM 43.5020 -79.6820 227° Southwest 240 276 4,600 -600 Descending FlightAware
05:08PM 43.4810 -79.7120 226° Southwest 222 255 4,300 -800 Descending FlightAware
05:08PM 43.4750 -79.7330 249° West 218 251 4,000 -900 Descending FlightAware
05:09PM 43.4900 -79.7680 301° West 218 251 3,700 -600 Descending FlightAware
05:09PM 43.5000 -79.7790 321° Northwest 212 244 3,600 -480 Descending FlightAware
05:09PM 43.5090 -79.7830 342° North 204 235 3,500 -533 Descending FlightAware
05:10PM 43.5420 -79.7720 14° North 198 228 3,200 -500 Descending FlightAware
05:10PM 43.5610 -79.7610 23° Northeast 184 212 3,000 -450 Descending FlightAware
05:11PM 43.5690 -79.7510 42° Northeast 180 207 2,900 -450 Descending FlightAware
05:11PM 43.5830 -79.7310 46° Northeast 176 203 2,700 -764 Descending FlightAware
05:11PM 43.6000 -79.7060 47° Northeast 166 191 2,200 -1,000 Descending FlightAware
05:12PM 43.6160 -79.6830 46° Northeast 153 176 1,700 -873 Descending FlightAware
05:12PM 43.6280 -79.6650 47° Northeast 140 161 1,400 -750 Descending FlightAware
05:13PM 43.6330 -79.6580 45° Northeast 135 155 1,200 -750 Descending FlightAware
05:13PM 43.6440 -79.6420 46° Northeast 134 154 900 -720 Descending FlightAware